createdAt,value
2022-10-13T00:01:33.932Z,14.55
2022-10-13T00:04:02.316Z,21.08
2022-10-13T00:06:32.387Z,16.90
2022-10-13T00:09:00.951Z,16.45
2022-10-13T00:11:31.101Z,19.45
2022-10-13T00:14:01.829Z,14.88
2022-10-13T00:16:32.210Z,16.83
2022-10-13T00:19:01.192Z,18.20
2022-10-13T00:21:31.532Z,13.25
2022-10-13T00:23:59.996Z,16.67
2022-10-13T00:26:28.944Z,16.08
2022-10-13T00:28:57.772Z,22.55
2022-10-13T00:31:28.279Z,21.33
2022-10-13T00:33:57.099Z,23.23
2022-10-13T00:36:25.765Z,15.70
2022-10-13T00:38:55.821Z,14.88
2022-10-13T00:41:24.323Z,15.27
2022-10-13T00:43:57.266Z,14.35
2022-10-13T00:46:27.982Z,17.00
2022-10-13T00:49:02.974Z,20.83
2022-10-13T00:51:34.741Z,11.60
2022-10-13T00:54:07.076Z,19.13
2022-10-13T00:56:37.539Z,17.08
2022-10-13T00:59:10.530Z,17.00
2022-10-13T01:01:41.344Z,14.05
2022-10-13T01:04:10.403Z,17.13
2022-10-13T01:06:39.096Z,17.73
2022-10-13T01:09:11.129Z,23.98
2022-10-13T01:11:55.523Z,23.75
2022-10-13T01:14:31.878Z,18.10
2022-10-13T01:17:10.335Z,16.50
2022-10-13T01:20:05.889Z,16.98
2022-10-13T01:22:49.868Z,14.18
2022-10-13T01:25:40.424Z,16.70
2022-10-13T01:28:32.817Z,19.30
2022-10-13T01:31:09.582Z,25.42
2022-10-13T01:33:44.914Z,25.33
2022-10-13T01:36:25.040Z,22.85
2022-10-13T01:38:58.166Z,25.35
2022-10-13T01:41:34.604Z,15.45
2022-10-13T01:44:16.362Z,18.58
2022-10-13T01:46:55.255Z,16.10
2022-10-13T01:49:28.371Z,14.05
2022-10-13T01:52:01.419Z,18.10
2022-10-13T01:54:30.080Z,16.35
2022-10-13T01:57:01.084Z,14.45
2022-10-13T01:59:33.931Z,13.50
2022-10-13T02:02:13.224Z,16.45
2022-10-13T02:04:52.653Z,19.70
2022-10-13T02:07:25.143Z,14.80
2022-10-13T02:10:03.740Z,19.63
2022-10-13T02:12:38.162Z,18.60
2022-10-13T02:15:10.544Z,17.30
2022-10-13T02:17:43.454Z,16.48
2022-10-13T02:20:12.848Z,15.63
2022-10-13T02:22:46.805Z,20.48
2022-10-13T02:25:15.513Z,16.70
2022-10-13T02:27:44.022Z,19.77
2022-10-13T02:30:23.175Z,16.02
2022-10-13T02:32:53.022Z,13.20
2022-10-13T02:35:21.557Z,16.38
2022-10-13T02:37:50.020Z,16.15
2022-10-13T02:40:18.988Z,15.00
2022-10-13T02:42:47.426Z,15.27
2022-10-13T02:45:16.249Z,18.08
2022-10-13T02:47:45.381Z,18.95
2022-10-13T02:50:15.359Z,14.45
2022-10-13T02:52:43.830Z,23.98
2022-10-13T02:55:12.285Z,13.65
2022-10-13T02:57:41.310Z,13.45
2022-10-13T03:00:10.795Z,13.93
2022-10-13T03:02:39.370Z,12.80
2022-10-13T03:05:08.187Z,14.48
2022-10-13T03:07:38.326Z,14.07
2022-10-13T03:10:07.776Z,18.15
2022-10-13T03:12:36.213Z,16.30
2022-10-13T03:15:05.354Z,11.77
2022-10-13T03:17:33.819Z,14.50
2022-10-13T03:20:02.258Z,14.98
2022-10-13T03:22:32.957Z,16.33
2022-10-13T03:25:03.807Z,17.83
2022-10-13T03:27:32.366Z,17.63
2022-10-13T03:30:00.784Z,16.48
2022-10-13T03:32:31.597Z,15.63
2022-10-13T03:35:00.388Z,18.65
2022-10-13T03:37:31.465Z,19.65
2022-10-13T03:40:00.087Z,14.88
2022-10-13T03:42:30.121Z,10.80
2022-10-13T03:44:58.579Z,13.77
2022-10-13T03:47:27.047Z,12.05
2022-10-13T03:49:56.161Z,16.48
2022-10-13T03:52:24.896Z,18.42
2022-10-13T03:54:53.369Z,13.50
2022-10-13T03:57:21.822Z,14.77
2022-10-13T03:59:51.697Z,23.00
2022-10-13T04:02:20.373Z,16.42
2022-10-13T04:04:50.494Z,17.17
2022-10-13T04:07:19.001Z,15.85
2022-10-13T04:09:47.437Z,13.98
2022-10-13T04:12:19.826Z,16.67
2022-10-13T04:14:49.826Z,17.95
2022-10-13T04:17:19.682Z,16.55
2022-10-13T04:19:48.168Z,13.60
2022-10-13T04:22:16.798Z,17.50
2022-10-13T04:24:49.522Z,21.33
2022-10-13T04:27:19.998Z,16.35
2022-10-13T04:29:48.419Z,14.57
2022-10-13T04:32:17.168Z,19.63
2022-10-13T04:34:47.194Z,16.38
2022-10-13T04:37:15.591Z,13.30
2022-10-13T04:39:44.042Z,16.92
2022-10-13T04:42:12.493Z,14.73
2022-10-13T04:44:41.156Z,15.93
2022-10-13T04:47:13.294Z,14.98
2022-10-13T04:49:41.745Z,22.55
2022-10-13T04:52:11.601Z,18.33
2022-10-13T04:54:40.252Z,19.88
2022-10-13T04:57:08.653Z,16.25
2022-10-13T04:59:37.045Z,19.20
2022-10-13T05:05:14.936Z,12.32
2022-10-13T05:07:44.785Z,14.30
2022-10-13T05:10:13.312Z,13.35
2022-10-13T05:12:41.760Z,16.30
2022-10-13T05:15:11.007Z,18.15
2022-10-13T05:17:39.429Z,20.08
2022-10-13T05:20:11.662Z,18.23
2022-10-13T05:22:40.053Z,18.50
2022-10-13T05:25:10.268Z,24.23
2022-10-13T05:27:38.984Z,23.38
2022-10-13T05:30:12.088Z,20.20
2022-10-13T05:32:40.548Z,23.02
2022-10-13T05:35:10.762Z,15.60
2022-10-13T05:37:42.002Z,15.80
2022-10-13T05:40:13.222Z,18.52
2022-10-13T05:42:41.682Z,16.17
2022-10-13T05:45:12.899Z,21.48
2022-10-13T05:47:41.300Z,20.20
2022-10-13T05:50:10.024Z,15.65
2022-10-13T05:52:42.649Z,17.63
2022-10-13T05:55:16.142Z,14.77
2022-10-13T05:57:47.093Z,15.95
2022-10-13T06:00:18.369Z,20.20
2022-10-13T06:02:51.477Z,17.33
2022-10-13T06:05:23.025Z,23.02
2022-10-13T06:07:56.144Z,18.67
2022-10-13T06:10:26.735Z,18.30
2022-10-13T06:12:55.206Z,20.20
2022-10-13T06:15:28.012Z,17.85
2022-10-13T06:17:57.951Z,19.65
2022-10-13T06:20:27.753Z,24.42
2022-10-13T06:22:56.339Z,28.77
2022-10-13T06:25:26.250Z,17.02
2022-10-13T06:27:54.701Z,26.17
2022-10-13T06:30:23.180Z,20.55
2022-10-13T06:32:51.624Z,19.23
2022-10-13T06:35:20.092Z,19.02
2022-10-13T06:37:48.849Z,19.65
2022-10-13T06:40:17.353Z,22.95
2022-10-13T06:42:52.206Z,21.50
2022-10-13T06:45:24.288Z,27.55
2022-10-13T06:47:54.266Z,17.95
2022-10-13T06:50:22.724Z,21.48
2022-10-13T06:52:51.646Z,23.38
2022-10-13T06:55:20.129Z,17.45
2022-10-13T06:57:48.528Z,24.77
2022-10-13T07:00:18.758Z,19.95
2022-10-13T07:02:51.659Z,21.98
2022-10-13T07:05:20.431Z,21.00
2022-10-13T07:07:48.866Z,24.33
2022-10-13T07:10:17.455Z,25.88
2022-10-13T07:12:47.056Z,20.92
2022-10-13T07:15:15.692Z,28.33
2022-10-13T07:17:45.661Z,31.88
2022-10-13T07:20:14.119Z,38.88
2022-10-13T07:22:42.735Z,42.90
2022-10-13T07:25:11.494Z,65.70
2022-10-13T07:27:41.018Z,74.00
2022-10-13T07:30:10.460Z,89.47
2022-10-13T07:32:42.109Z,78.50
2022-10-13T07:35:13.465Z,78.50
2022-10-13T07:37:41.990Z,76.10
2022-10-13T07:40:11.569Z,83.95
2022-10-13T07:42:40.010Z,87.07
2022-10-13T07:45:09.928Z,97.15
2022-10-13T07:47:38.611Z,68.75
2022-10-13T07:50:07.493Z,51.88
2022-10-13T07:52:38.169Z,51.38
2022-10-13T07:55:07.919Z,40.50
2022-10-13T07:57:36.402Z,42.85
2022-10-13T08:00:07.360Z,40.42
2022-10-13T08:02:40.892Z,39.17
2022-10-13T08:05:09.923Z,36.45
2022-10-13T08:07:39.982Z,57.25
2022-10-13T08:10:09.850Z,62.08
2022-10-13T08:12:38.667Z,65.70
2022-10-13T08:15:08.841Z,59.40
2022-10-13T08:17:37.467Z,43.13
2022-10-13T08:20:07.409Z,50.28
2022-10-13T08:22:35.855Z,38.60
2022-10-13T08:25:07.407Z,34.17
2022-10-13T08:27:50.683Z,29.75
2022-10-13T08:30:20.260Z,36.92
2022-10-13T08:32:48.883Z,31.55
2022-10-13T08:35:17.370Z,29.92
2022-10-13T08:37:45.826Z,30.10
2022-10-13T08:40:19.947Z,23.83
2022-10-13T08:42:48.651Z,20.05
2022-10-13T08:45:40.283Z,21.85
2022-10-13T08:48:17.045Z,22.00
2022-10-13T08:50:48.964Z,20.88
2022-10-13T08:53:24.683Z,24.02
2022-10-13T08:55:59.091Z,23.70
2022-10-13T08:58:32.280Z,27.23
2022-10-13T09:01:12.201Z,27.52
2022-10-13T09:03:49.068Z,27.85
2022-10-13T09:06:27.358Z,29.38
2022-10-13T09:08:58.752Z,31.50
2022-10-13T09:11:30.459Z,27.52
2022-10-13T09:14:00.845Z,32.80
2022-10-13T09:16:31.370Z,27.50
2022-10-13T09:19:16.222Z,32.13
2022-10-13T09:21:44.846Z,38.78
2022-10-13T09:24:17.008Z,41.97
2022-10-13T09:26:49.075Z,43.22
2022-10-13T09:29:20.377Z,31.23
2022-10-13T09:31:49.007Z,30.45
2022-10-13T09:34:26.474Z,31.45
2022-10-13T09:37:01.823Z,32.88
2022-10-13T09:39:31.158Z,28.90
2022-10-13T09:42:22.835Z,27.65
2022-10-13T09:44:58.725Z,33.78
2022-10-13T09:47:29.613Z,46.28
2022-10-13T09:50:07.333Z,41.67
2022-10-13T09:52:36.193Z,47.03
2022-10-13T09:55:28.659Z,31.98
2022-10-13T09:58:07.413Z,47.40
2022-10-13T10:00:37.871Z,33.50
2022-10-13T10:03:14.170Z,28.95
2022-10-13T10:05:48.332Z,27.20
2022-10-13T10:08:28.877Z,30.00
2022-10-13T10:11:05.048Z,34.10
2022-10-13T10:13:34.884Z,26.27
2022-10-13T10:16:11.985Z,26.02
2022-10-13T10:18:46.510Z,27.13
2022-10-13T10:21:26.806Z,28.52
2022-10-13T10:24:01.243Z,27.40
2022-10-13T10:26:40.274Z,28.67
2022-10-13T10:29:20.816Z,30.58
2022-10-13T10:32:05.272Z,26.92
2022-10-13T10:34:40.723Z,35.65
2022-10-13T10:37:21.470Z,35.08
2022-10-13T10:40:04.896Z,29.55
2022-10-13T10:43:10.654Z,27.00
2022-10-13T10:45:41.289Z,21.33
2022-10-13T10:48:21.232Z,26.88
2022-10-13T10:50:51.955Z,39.40
2022-10-13T10:53:29.480Z,54.33
2022-10-13T10:56:05.382Z,22.73
2022-10-13T10:58:43.202Z,25.67
2022-10-13T11:01:27.620Z,20.40
2022-10-13T11:04:00.006Z,27.55
2022-10-13T11:06:35.386Z,19.70
2022-10-13T11:09:06.327Z,19.25
2022-10-13T11:11:40.441Z,20.35
2022-10-13T11:14:32.067Z,20.05
2022-10-13T11:17:12.010Z,23.70
2022-10-13T11:19:41.890Z,22.00
2022-10-13T11:22:16.382Z,20.25
2022-10-13T11:25:03.095Z,22.58
2022-10-13T11:27:45.217Z,24.65
2022-10-13T11:30:56.356Z,21.23
2022-10-13T11:34:05.538Z,16.92
2022-10-13T11:36:51.348Z,16.40
2022-10-13T11:40:00.211Z,19.50
2022-10-13T11:42:55.570Z,16.58
2022-10-13T11:45:58.256Z,13.70
2022-10-13T11:49:01.794Z,14.18
2022-10-13T11:51:54.828Z,12.15
2022-10-13T11:54:29.092Z,12.13
2022-10-13T11:56:58.629Z,12.10
2022-10-13T11:59:31.146Z,16.80
2022-10-13T12:02:07.356Z,15.88
2022-10-13T12:04:35.794Z,24.92
2022-10-13T12:07:08.835Z,18.17
2022-10-13T12:09:48.699Z,17.85
2022-10-13T12:12:19.748Z,18.33
2022-10-13T12:14:51.820Z,18.55
2022-10-13T12:17:39.074Z,15.13
2022-10-13T12:20:22.856Z,19.88
2022-10-13T12:22:54.520Z,13.60
2022-10-13T12:25:25.129Z,16.35
2022-10-13T12:28:01.578Z,21.45
2022-10-13T12:30:32.388Z,29.98
2022-10-13T12:33:01.798Z,23.77
2022-10-13T12:35:32.036Z,26.83
2022-10-13T12:38:04.440Z,35.92
2022-10-13T12:40:35.990Z,31.75
2022-10-13T12:43:05.557Z,36.28
2022-10-13T12:45:36.688Z,29.38
2022-10-13T12:48:05.504Z,31.27
2022-10-13T12:50:36.950Z,30.02
2022-10-13T12:53:15.541Z,34.63
2022-10-13T12:55:58.806Z,33.80
2022-10-13T12:58:30.705Z,23.50
2022-10-13T13:01:18.709Z,29.20
2022-10-13T13:03:47.210Z,28.25
2022-10-13T13:06:31.468Z,37.80
2022-10-13T13:09:28.856Z,38.17
2022-10-13T13:12:28.024Z,39.25
2022-10-13T13:14:58.046Z,40.60
2022-10-13T13:17:53.372Z,39.88
2022-10-13T13:20:23.438Z,38.65
2022-10-13T13:22:52.086Z,45.10
2022-10-13T13:25:22.100Z,42.45
2022-10-13T13:27:50.852Z,52.33
2022-10-13T13:30:21.631Z,46.78
2022-10-13T13:32:50.225Z,45.88
2022-10-13T13:35:18.839Z,46.53
2022-10-13T13:37:50.009Z,36.33
2022-10-13T13:40:22.635Z,39.10
2022-10-13T13:42:51.174Z,41.33
2022-10-13T13:45:21.899Z,35.95
2022-10-13T13:47:51.396Z,35.50
2022-10-13T13:50:23.392Z,38.90
2022-10-13T13:52:58.100Z,38.45
2022-10-13T13:55:29.771Z,42.50
2022-10-13T13:57:58.393Z,37.85
2022-10-13T14:00:27.045Z,38.90
2022-10-13T14:02:56.955Z,33.30
2022-10-13T14:05:25.641Z,26.05
2022-10-13T14:07:58.063Z,27.13
2022-10-13T14:10:29.394Z,21.77
2022-10-13T14:12:57.825Z,26.67
2022-10-13T14:15:29.675Z,20.25
2022-10-13T14:17:58.634Z,20.73
2022-10-13T14:20:27.136Z,21.30
2022-10-13T14:22:55.555Z,17.25
2022-10-13T14:25:24.039Z,17.90
2022-10-13T14:27:53.850Z,23.67
2022-10-13T14:30:22.217Z,14.75
2022-10-13T14:32:50.655Z,21.27
2022-10-13T14:35:19.221Z,16.95
2022-10-13T14:37:47.593Z,29.25
2022-10-13T14:40:16.608Z,26.92
2022-10-13T14:42:45.059Z,17.05
2022-10-13T14:45:18.337Z,17.00
2022-10-13T14:47:46.855Z,16.52
2022-10-13T14:50:15.286Z,17.67
2022-10-13T14:52:45.493Z,15.73
2022-10-13T14:55:13.913Z,22.98
2022-10-13T14:57:43.865Z,21.05
2022-10-13T15:00:13.430Z,19.83
2022-10-13T15:02:43.712Z,15.57
2022-10-13T15:05:12.241Z,14.52
2022-10-13T15:07:41.413Z,21.27
2022-10-13T15:10:10.396Z,24.42
2022-10-13T15:12:38.828Z,21.27
2022-10-13T15:15:07.893Z,18.17
2022-10-13T15:17:37.065Z,21.30
2022-10-13T15:20:08.596Z,19.80
2022-10-13T15:22:37.338Z,36.70
2022-10-13T15:25:11.971Z,21.50
2022-10-13T15:27:42.174Z,16.75
2022-10-13T15:30:11.563Z,36.03
2022-10-13T15:32:39.946Z,20.10
2022-10-13T15:35:10.469Z,15.95
2022-10-13T15:37:43.185Z,16.25
2022-10-13T15:40:12.786Z,13.45
2022-10-13T15:42:41.161Z,16.25
2022-10-13T15:45:11.554Z,12.68
2022-10-13T15:47:40.436Z,11.25
2022-10-13T15:50:11.026Z,14.50
2022-10-13T15:52:40.986Z,10.00
2022-10-13T15:55:10.545Z,9.82
2022-10-13T15:57:39.272Z,16.92
2022-10-13T16:00:09.706Z,14.23
2022-10-13T16:02:41.584Z,9.45
2022-10-13T16:05:13.842Z,8.75
2022-10-13T16:07:42.914Z,28.98
2022-10-13T16:10:13.479Z,11.70
2022-10-13T16:12:46.972Z,8.27
2022-10-13T16:15:18.656Z,9.90
2022-10-13T16:17:47.460Z,8.68
2022-10-13T16:20:17.470Z,5.50
2022-10-13T16:22:45.851Z,8.20
2022-10-13T16:25:14.316Z,11.38
2022-10-13T16:27:44.579Z,7.63
2022-10-13T16:30:14.115Z,6.57
2022-10-13T16:32:42.834Z,4.20
2022-10-13T16:35:11.829Z,5.25
2022-10-13T16:37:41.743Z,7.55
2022-10-13T16:40:11.114Z,5.57
2022-10-13T16:42:39.640Z,4.18
2022-10-13T16:45:09.077Z,6.50
2022-10-13T16:47:37.476Z,5.30
2022-10-13T16:50:09.770Z,4.85
2022-10-13T16:52:39.227Z,4.85
2022-10-13T16:55:10.932Z,11.25
2022-10-13T16:57:39.325Z,5.07
2022-10-13T17:00:09.797Z,7.30
2022-10-13T17:02:38.277Z,6.93
2022-10-13T17:05:06.916Z,7.57
2022-10-13T17:07:35.366Z,4.95
2022-10-13T17:10:04.396Z,9.73
2022-10-13T17:12:35.029Z,5.65
2022-10-13T17:15:03.524Z,5.20
2022-10-13T17:17:32.176Z,9.77
2022-10-13T17:20:00.630Z,7.13
2022-10-13T17:22:29.057Z,3.95
2022-10-13T17:24:57.535Z,5.65
2022-10-13T17:27:25.961Z,5.20
2022-10-13T17:29:55.928Z,3.20
2022-10-13T17:32:25.102Z,6.75
2022-10-13T17:34:53.642Z,5.18
2022-10-13T17:37:22.549Z,3.35
2022-10-13T17:39:51.386Z,3.50
2022-10-13T17:42:19.877Z,3.42
2022-10-13T17:44:50.467Z,3.50
2022-10-13T17:47:20.473Z,4.75
2022-10-13T17:49:49.100Z,4.38
2022-10-13T17:52:19.865Z,4.50
2022-10-13T17:54:49.309Z,7.07
2022-10-13T17:57:18.016Z,6.03
2022-10-13T17:59:47.184Z,4.13
2022-10-13T18:02:16.051Z,4.20
2022-10-13T18:04:46.503Z,4.05
2022-10-13T18:07:15.352Z,4.57
2022-10-13T18:09:43.828Z,3.97
2022-10-13T18:12:12.352Z,4.28
2022-10-13T18:14:40.881Z,4.57
2022-10-13T18:17:09.313Z,6.07
2022-10-13T18:19:40.477Z,5.20
2022-10-13T18:22:10.465Z,7.95
2022-10-13T18:24:39.585Z,7.00
2022-10-13T18:27:08.029Z,4.90
2022-10-13T18:29:37.084Z,5.75
2022-10-13T18:32:05.692Z,5.85
2022-10-13T18:34:34.221Z,3.28
2022-10-13T18:37:02.668Z,5.72
2022-10-13T18:39:34.454Z,5.60
2022-10-13T18:42:02.989Z,8.05
2022-10-13T18:44:37.596Z,6.32
2022-10-13T18:47:07.070Z,5.53
2022-10-13T18:49:35.674Z,4.28
2022-10-13T18:52:04.092Z,11.35
2022-10-13T18:54:34.293Z,4.70
2022-10-13T18:57:02.691Z,5.75
2022-10-13T18:59:31.153Z,3.60
2022-10-13T19:01:59.995Z,5.60
2022-10-13T19:04:28.729Z,7.40
2022-10-13T19:06:57.147Z,7.20
2022-10-13T19:09:26.541Z,7.45
2022-10-13T19:11:57.885Z,5.68
2022-10-13T19:14:27.426Z,16.05
2022-10-13T19:17:00.890Z,5.68
2022-10-13T19:19:31.265Z,6.80
2022-10-13T19:22:02.336Z,6.65
2022-10-13T19:24:31.046Z,10.70
2022-10-13T19:27:00.882Z,6.50
2022-10-13T19:29:30.644Z,9.55
2022-10-13T19:31:59.347Z,9.43
2022-10-13T19:34:27.927Z,10.65
2022-10-13T19:36:59.834Z,8.32
2022-10-13T19:39:29.025Z,6.63
2022-10-13T19:41:58.675Z,7.00
2022-10-13T19:44:28.622Z,6.40
2022-10-13T19:46:57.080Z,9.52
2022-10-13T19:49:26.671Z,10.05
2022-10-13T19:51:56.193Z,6.03
2022-10-13T19:54:25.736Z,8.75
2022-10-13T19:56:55.560Z,6.82
2022-10-13T19:59:24.258Z,9.85
2022-10-13T20:01:54.056Z,8.85
2022-10-13T20:04:22.787Z,8.23
2022-10-13T20:06:52.467Z,12.55
2022-10-13T20:09:21.209Z,6.35
2022-10-13T20:11:51.890Z,7.43
2022-10-13T20:14:20.848Z,5.85
2022-10-13T20:16:49.509Z,9.13
2022-10-13T20:19:19.922Z,10.05
2022-10-13T20:21:51.766Z,7.07
2022-10-13T20:24:20.711Z,8.27
2022-10-13T20:26:49.097Z,13.73
2022-10-13T20:29:20.901Z,10.25
2022-10-13T20:31:49.308Z,8.27
2022-10-13T20:34:19.126Z,14.43
2022-10-13T20:36:47.690Z,9.82
2022-10-13T20:39:16.094Z,6.95
2022-10-13T20:41:44.990Z,6.22
2022-10-13T20:44:14.670Z,11.18
2022-10-13T20:46:43.182Z,7.72
2022-10-13T20:49:13.005Z,8.75
2022-10-13T20:51:45.227Z,7.85
2022-10-13T20:54:15.857Z,8.23
2022-10-13T20:56:44.857Z,13.20
2022-10-13T20:59:15.720Z,9.27
2022-10-13T21:01:44.507Z,11.05
2022-10-13T21:04:12.946Z,9.70
2022-10-13T21:06:43.771Z,8.93
2022-10-13T21:09:12.928Z,6.38
2022-10-13T21:11:43.476Z,9.88
2022-10-13T21:14:12.318Z,7.18
2022-10-13T21:16:41.237Z,8.45
2022-10-13T21:19:14.257Z,9.68
2022-10-13T21:21:44.543Z,10.02
2022-10-13T21:24:13.027Z,11.68
2022-10-13T21:26:43.581Z,16.02
2022-10-13T21:29:15.729Z,7.80
2022-10-13T21:31:44.293Z,7.95
2022-10-13T21:34:15.364Z,7.88
2022-10-13T21:36:45.707Z,10.98
2022-10-13T21:39:14.834Z,9.73
2022-10-13T21:41:43.412Z,10.13
2022-10-13T21:44:13.957Z,9.70
2022-10-13T21:46:42.890Z,9.90
2022-10-13T21:49:11.327Z,9.38
2022-10-13T21:51:41.608Z,11.63
2022-10-13T21:54:13.530Z,8.13
2022-10-13T21:56:42.610Z,10.13
2022-10-13T21:59:13.599Z,11.95
2022-10-13T22:01:42.561Z,12.85
2022-10-13T22:04:15.286Z,10.57
2022-10-13T22:06:44.234Z,9.20
2022-10-13T22:09:14.863Z,13.10
2022-10-13T22:11:43.836Z,7.10
2022-10-13T22:14:12.842Z,9.70
2022-10-13T22:16:43.410Z,12.60
2022-10-13T22:19:11.911Z,8.90
2022-10-13T22:21:43.044Z,7.25
2022-10-13T22:24:15.371Z,9.90
2022-10-13T22:26:46.960Z,11.60
2022-10-13T22:29:18.152Z,8.15
2022-10-13T22:31:47.363Z,12.75
2022-10-13T22:34:16.392Z,10.27
2022-10-13T22:36:45.470Z,10.40
2022-10-13T22:39:16.135Z,8.15
2022-10-13T22:41:44.984Z,9.43
2022-10-13T22:44:14.935Z,7.07
2022-10-13T22:46:43.408Z,12.38
2022-10-13T22:49:15.549Z,10.20
2022-10-13T22:51:44.044Z,8.48
2022-10-13T22:54:12.582Z,11.50
2022-10-13T22:56:43.271Z,12.45
2022-10-13T22:59:13.915Z,9.50
2022-10-13T23:01:42.413Z,12.85
2022-10-13T23:04:11.021Z,11.40
2022-10-13T23:06:39.615Z,11.55
2022-10-13T23:09:11.479Z,13.27
2022-10-13T23:11:42.766Z,10.93
2022-10-13T23:14:14.290Z,11.68
2022-10-13T23:16:42.813Z,14.50
2022-10-13T23:19:11.609Z,15.73
2022-10-13T23:21:40.046Z,17.52
2022-10-13T23:24:09.124Z,22.45
2022-10-13T23:26:37.591Z,15.13
2022-10-13T23:29:07.581Z,13.10
2022-10-13T23:31:36.117Z,8.55
2022-10-13T23:34:04.695Z,9.75
2022-10-13T23:36:33.959Z,7.88
2022-10-13T23:39:04.346Z,12.30
2022-10-13T23:41:32.854Z,18.48
2022-10-13T23:44:01.458Z,13.20
2022-10-13T23:46:31.451Z,12.40
2022-10-13T23:48:59.869Z,11.88
2022-10-13T23:51:28.550Z,16.20
2022-10-13T23:53:57.594Z,10.82
2022-10-13T23:56:26.340Z,16.52
2022-10-13T23:58:54.850Z,11.13
